Garden Ridge, Texas
Current Conditions -  °F | °C
As of 10:58 AM on Thursday 18 Dec 2014 (Local Time) from KRND Reporting Station
Overcast Overcast  
Wind Chill: 60°   Ceiling: 500
Heat Index: 60°   Visibility: 7mi
Dew Point: 57°   Wind: 6mph
Humidity: 88%   Direction: 40°NE
Pressure: 30.12"   Gusts: NA
Location:  29.6654°N, 98.3191°W
Report Text: KRND 181658Z 04005KT 7SM OVC005 16/14 A3012 RMK AO2A SLP197 T01570138
Loading
Personal Weather Stations






























Interactive Weather Map New forecast layout! Learn more

10-Day Weather Forecast

Advertisements
Track Severe Weather on mobile